createdAt,value
2019-04-10T00:01:09.205Z,101.87
2019-04-10T00:03:37.827Z,102.05
2019-04-10T00:06:04.688Z,106.82
2019-04-10T00:08:32.455Z,98.78
2019-04-10T00:11:00.467Z,99.43
2019-04-10T00:13:28.931Z,107.85
2019-04-10T00:15:57.077Z,101.70
2019-04-10T00:18:26.199Z,96.57
2019-04-10T00:20:53.310Z,101.53
2019-04-10T00:23:22.651Z,99.30
2019-04-10T00:25:50.795Z,99.20
2019-04-10T00:28:19.093Z,102.05
2019-04-10T00:30:46.267Z,96.72
2019-04-10T00:33:14.568Z,99.03
2019-04-10T00:35:43.762Z,96.57
2019-04-10T00:38:10.890Z,97.93
2019-04-10T00:40:39.510Z,95.20
2019-04-10T00:43:07.337Z,91.45
2019-04-10T00:45:35.656Z,91.75
2019-04-10T00:48:03.778Z,94.57
2019-04-10T00:50:32.775Z,89.78
2019-04-10T00:53:00.925Z,92.37
2019-04-10T00:55:28.861Z,88.40
2019-04-10T00:57:56.658Z,91.77
2019-04-10T01:00:25.554Z,92.10
2019-04-10T01:02:53.325Z,90.65
2019-04-10T01:05:21.373Z,89.05
2019-04-10T01:07:49.775Z,86.57
2019-04-10T01:10:18.072Z,88.80
2019-04-10T01:12:46.274Z,90.35
2019-04-10T01:15:14.465Z,86.37
2019-04-10T01:17:43.386Z,87.85
2019-04-10T01:20:11.382Z,86.95
2019-04-10T01:22:39.615Z,84.43
2019-04-10T01:25:08.275Z,83.80
2019-04-10T01:27:36.192Z,83.85
2019-04-10T01:30:04.351Z,85.55
2019-04-10T01:32:34.231Z,84.03
2019-04-10T01:35:02.490Z,81.97
2019-04-10T01:37:29.974Z,87.00
2019-04-10T01:39:59.016Z,86.55
2019-04-10T01:42:26.468Z,81.25
2019-04-10T01:44:55.227Z,88.10
2019-04-10T01:47:23.431Z,84.75
2019-04-10T01:49:51.124Z,83.75
2019-04-10T01:52:19.352Z,83.25
2019-04-10T01:54:47.573Z,83.90
2019-04-10T01:57:16.684Z,83.80
2019-04-10T01:59:43.969Z,83.82
2019-04-10T02:02:14.824Z,83.85
2019-04-10T02:04:42.362Z,82.30
2019-04-10T02:07:10.535Z,84.00
2019-04-10T02:09:39.288Z,78.73
2019-04-10T02:12:07.176Z,84.53
2019-04-10T02:14:36.346Z,82.32
2019-04-10T02:17:04.287Z,85.55
2019-04-10T02:19:32.288Z,78.68
2019-04-10T02:22:00.309Z,77.68
2019-04-10T02:24:29.267Z,81.68
2019-04-10T02:26:56.344Z,81.67
2019-04-10T02:29:24.553Z,81.05
2019-04-10T02:31:54.870Z,76.95
2019-04-10T02:34:21.364Z,78.75
2019-04-10T02:36:50.671Z,77.47
2019-04-10T02:39:26.607Z,77.62
2019-04-10T02:41:45.867Z,76.93
2019-04-10T02:44:14.065Z,78.47
2019-04-10T02:46:42.138Z,78.43
2019-04-10T02:49:12.087Z,79.30
2019-04-10T02:51:38.951Z,77.40
2019-04-10T02:54:06.840Z,77.12
2019-04-10T02:56:36.524Z,78.20
2019-04-10T02:59:04.863Z,82.68
2019-04-10T03:01:31.629Z,77.47
2019-04-10T03:04:01.308Z,82.60
2019-04-10T03:06:29.186Z,85.57
2019-04-10T03:09:13.769Z,90.03
2019-04-10T03:11:25.905Z,91.30
2019-04-10T03:13:53.377Z,89.37
2019-04-10T03:16:21.604Z,90.70
2019-04-10T03:18:49.324Z,87.20
2019-04-10T03:21:17.245Z,84.82
2019-04-10T03:23:45.505Z,87.47
2019-04-10T03:26:13.728Z,91.63
2019-04-10T03:28:43.000Z,89.32
2019-04-10T03:31:10.745Z,90.78
2019-04-10T03:33:44.173Z,90.45
2019-04-10T03:36:07.369Z,90.72
2019-04-10T03:38:47.315Z,89.43
2019-04-10T03:41:04.018Z,93.50
2019-04-10T03:43:32.011Z,89.85
2019-04-10T03:45:59.628Z,93.75
2019-04-10T03:48:27.858Z,93.93
2019-04-10T03:50:57.130Z,95.40
2019-04-10T03:53:24.644Z,93.50
2019-04-10T03:55:53.550Z,91.68
2019-04-10T03:58:20.783Z,92.07
2019-04-10T04:00:50.544Z,88.47
2019-04-10T04:03:18.227Z,89.87
2019-04-10T04:05:45.445Z,89.73
2019-04-10T04:08:13.708Z,88.22
2019-04-10T04:10:42.614Z,91.22
2019-04-10T04:13:11.077Z,92.53
2019-04-10T04:15:38.443Z,87.10
2019-04-10T04:18:06.794Z,87.90
2019-04-10T04:20:35.036Z,87.37
2019-04-10T04:23:03.481Z,84.57
2019-04-10T04:25:32.422Z,83.32
2019-04-10T04:28:00.454Z,81.97
2019-04-10T04:30:27.819Z,83.30
2019-04-10T04:32:56.114Z,85.83
2019-04-10T04:35:24.271Z,83.43
2019-04-10T04:37:52.678Z,80.95
2019-04-10T04:40:21.739Z,81.30
2019-04-10T04:42:49.402Z,81.35
2019-04-10T04:45:17.327Z,84.97
2019-04-10T04:47:45.425Z,82.18
2019-04-10T04:50:13.657Z,83.62
2019-04-10T04:52:41.934Z,79.87
2019-04-10T04:55:10.158Z,77.13
2019-04-10T04:57:39.670Z,80.80
2019-04-10T05:00:07.657Z,82.45
2019-04-10T05:02:34.885Z,83.97
2019-04-10T05:05:03.036Z,80.72
2019-04-10T05:07:31.309Z,83.45
2019-04-10T05:10:01.418Z,87.22
2019-04-10T05:12:27.725Z,90.05
2019-04-10T05:14:55.872Z,85.33
2019-04-10T05:17:24.197Z,86.68
2019-04-10T05:19:52.586Z,86.50
2019-04-10T05:22:20.683Z,90.40
2019-04-10T05:24:48.954Z,87.18
2019-04-10T05:27:18.095Z,92.22
2019-04-10T05:29:45.431Z,92.70
2019-04-10T05:32:14.512Z,86.47
2019-04-10T05:34:43.207Z,85.15
2019-04-10T05:37:10.139Z,85.55
2019-04-10T05:39:43.215Z,84.20
2019-04-10T05:42:06.586Z,86.77
2019-04-10T05:44:35.058Z,85.40
2019-04-10T05:47:03.368Z,90.65
2019-04-10T05:49:31.229Z,87.70
2019-04-10T05:51:59.492Z,90.93
2019-04-10T05:54:27.705Z,88.30
2019-04-10T05:56:55.951Z,90.80
2019-04-10T05:59:24.173Z,85.75
2019-04-10T06:01:52.715Z,86.60
2019-04-10T06:04:21.048Z,81.03
2019-04-10T06:06:48.877Z,82.13
2019-04-10T06:09:17.108Z,79.70
2019-04-10T06:11:45.755Z,82.35
2019-04-10T06:14:13.614Z,80.47
2019-04-10T06:16:42.625Z,77.07
2019-04-10T06:19:10.041Z,77.62
2019-04-10T06:21:38.292Z,80.97
2019-04-10T06:24:07.768Z,75.25
2019-04-10T06:26:35.526Z,70.68
2019-04-10T06:29:02.935Z,72.10
2019-04-10T06:31:31.137Z,73.37
2019-04-10T06:34:00.365Z,69.85
2019-04-10T06:36:27.571Z,66.90
2019-04-10T06:38:55.791Z,68.07
2019-04-10T06:41:24.302Z,65.12
2019-04-10T06:43:53.080Z,65.65
2019-04-10T06:46:20.458Z,62.83
2019-04-10T06:48:48.685Z,61.42
2019-04-10T06:51:18.825Z,62.07
2019-04-10T06:53:45.184Z,60.17
2019-04-10T06:56:13.429Z,58.78
2019-04-10T06:58:42.442Z,59.50
2019-04-10T07:01:10.424Z,57.70
2019-04-10T07:03:49.490Z,60.50
2019-04-10T07:06:14.383Z,56.90
2019-04-10T07:08:34.605Z,54.35
2019-04-10T07:11:08.662Z,51.03
2019-04-10T07:13:32.145Z,50.03
2019-04-10T07:15:59.973Z,49.00
2019-04-10T07:18:28.423Z,50.25
2019-04-10T07:20:58.359Z,47.30
2019-04-10T07:23:28.817Z,46.75
2019-04-10T07:25:52.245Z,45.85
2019-04-10T07:28:21.555Z,46.25
2019-04-10T07:30:48.762Z,48.55
2019-04-10T07:33:19.194Z,45.87
2019-04-10T07:35:46.370Z,46.80
2019-04-10T07:38:13.935Z,43.97
2019-04-10T07:40:42.791Z,46.05
2019-04-10T07:43:09.880Z,48.45
2019-04-10T07:45:38.138Z,45.40
2019-04-10T07:48:06.614Z,47.97
2019-04-10T07:50:34.865Z,46.28
2019-04-10T07:53:03.053Z,44.92
2019-04-10T07:55:31.033Z,42.80
2019-04-10T07:57:59.383Z,42.30
2019-04-10T08:00:28.471Z,42.62
2019-04-10T08:02:57.238Z,40.67
2019-04-10T08:05:25.048Z,41.10
2019-04-10T08:10:50.956Z,40.83
2019-04-10T08:13:18.783Z,38.28
2019-04-10T08:15:47.018Z,39.00
2019-04-10T08:18:15.300Z,37.67
2019-04-10T08:20:43.534Z,39.83
2019-04-10T08:23:12.330Z,35.35
2019-04-10T08:25:40.875Z,33.40
2019-04-10T08:28:09.163Z,34.30
2019-04-10T08:30:36.480Z,34.07
2019-04-10T08:33:05.981Z,31.05
2019-04-10T08:35:33.594Z,29.75
2019-04-10T08:38:01.390Z,28.80
2019-04-10T08:40:30.009Z,29.37
2019-04-10T08:42:57.868Z,30.07
2019-04-10T08:45:35.788Z,26.15
2019-04-10T08:47:54.295Z,27.05
2019-04-10T08:50:22.540Z,28.23
2019-04-10T08:52:50.866Z,27.00
2019-04-10T08:55:19.051Z,26.45
2019-04-10T08:57:48.486Z,26.02
2019-04-10T09:00:16.739Z,24.60
2019-04-10T09:02:44.991Z,22.85
2019-04-10T09:05:13.313Z,25.02
2019-04-10T09:07:41.425Z,25.92
2019-04-10T09:10:10.247Z,22.87
2019-04-10T09:12:38.952Z,22.70
2019-04-10T09:15:07.800Z,23.50
2019-04-10T09:17:35.591Z,23.20
2019-04-10T09:20:04.509Z,22.52
2019-04-10T09:22:47.960Z,22.80
2019-04-10T09:25:00.712Z,22.17
2019-04-10T09:27:28.972Z,22.27
2019-04-10T09:29:56.754Z,21.67
2019-04-10T09:32:26.457Z,21.15
2019-04-10T09:34:54.309Z,22.45
2019-04-10T09:37:22.571Z,19.87
2019-04-10T09:39:52.391Z,21.80
2019-04-10T09:42:19.407Z,21.33
2019-04-10T09:44:48.497Z,22.48
2019-04-10T09:47:16.430Z,25.52
2019-04-10T09:49:46.784Z,23.27
2019-04-10T09:52:12.423Z,25.35
2019-04-10T09:54:40.477Z,22.77
2019-04-10T09:57:09.095Z,22.70
2019-04-10T09:59:39.580Z,22.62
2019-04-10T10:02:05.157Z,24.10
2019-04-10T10:04:33.413Z,22.80
2019-04-10T10:07:01.975Z,21.73
2019-04-10T10:09:30.718Z,20.48
2019-04-10T10:11:58.932Z,21.02
2019-04-10T10:14:26.578Z,20.25
2019-04-10T10:16:54.648Z,20.70
2019-04-10T10:19:23.737Z,21.25
2019-04-10T10:21:51.133Z,19.83
2019-04-10T10:24:19.429Z,20.23
2019-04-10T10:26:47.732Z,19.97
2019-04-10T10:29:15.927Z,19.35
2019-04-10T10:31:44.443Z,19.17
2019-04-10T10:34:12.393Z,18.92
2019-04-10T10:36:44.467Z,18.27
2019-04-10T10:39:14.395Z,18.92
2019-04-10T10:41:40.955Z,18.75
2019-04-10T10:44:09.243Z,17.73
2019-04-10T10:46:37.716Z,18.40
2019-04-10T10:49:06.271Z,18.00
2019-04-10T10:51:34.965Z,18.05
2019-04-10T10:54:03.857Z,17.90
2019-04-10T10:56:30.672Z,18.40
2019-04-10T10:58:59.023Z,17.90
2019-04-10T11:01:27.564Z,18.12
2019-04-10T11:03:56.262Z,18.42
2019-04-10T11:06:23.351Z,18.00
2019-04-10T11:08:51.990Z,17.90
2019-04-10T11:11:20.199Z,17.17
2019-04-10T11:13:48.521Z,17.10
2019-04-10T11:16:17.090Z,16.98
2019-04-10T11:18:45.094Z,17.02
2019-04-10T11:21:14.124Z,16.60
2019-04-10T11:23:42.441Z,17.02
2019-04-10T11:26:11.073Z,16.05
2019-04-10T11:28:39.163Z,16.40
2019-04-10T11:31:07.511Z,15.83
2019-04-10T11:33:34.820Z,16.33
2019-04-10T11:36:03.774Z,16.05
2019-04-10T11:38:31.136Z,15.35
2019-04-10T11:41:00.076Z,15.95
2019-04-10T11:43:27.897Z,15.32
2019-04-10T11:45:58.501Z,16.23
2019-04-10T11:48:25.641Z,16.37
2019-04-10T11:50:55.842Z,18.25
2019-04-10T11:53:21.478Z,18.35
2019-04-10T11:55:50.973Z,16.52
2019-04-10T11:58:17.899Z,19.03
2019-04-10T12:00:51.209Z,18.35
2019-04-10T12:03:15.251Z,18.98
2019-04-10T12:05:42.375Z,18.98
2019-04-10T12:08:33.642Z,16.95
2019-04-10T12:13:06.427Z,18.02
2019-04-10T12:15:34.650Z,20.30
2019-04-10T12:18:02.887Z,20.52
2019-04-10T12:20:31.349Z,18.83
2019-04-10T12:23:00.460Z,21.08
2019-04-10T12:25:27.684Z,21.05
2019-04-10T12:27:55.939Z,19.55
2019-04-10T12:30:24.213Z,20.80
2019-04-10T12:32:52.617Z,21.58
2019-04-10T12:35:20.601Z,21.30
2019-04-10T12:38:01.451Z,22.20
2019-04-10T12:40:19.408Z,21.95
2019-04-10T12:42:46.458Z,21.60
2019-04-10T12:45:15.710Z,22.60
2019-04-10T12:47:42.940Z,22.48
2019-04-10T12:50:12.067Z,21.85
2019-04-10T12:52:39.398Z,21.70
2019-04-10T12:55:08.155Z,20.52
2019-04-10T12:57:35.793Z,21.47
2019-04-10T13:00:04.950Z,21.48
2019-04-10T13:02:32.311Z,20.45
2019-04-10T13:05:00.829Z,20.60
2019-04-10T13:07:29.680Z,19.58
2019-04-10T13:09:58.080Z,19.35
2019-04-10T13:12:25.148Z,19.00
2019-04-10T13:14:53.419Z,19.35
2019-04-10T13:17:22.698Z,17.92
2019-04-10T13:19:49.848Z,19.53
2019-04-10T13:22:18.112Z,18.50
2019-04-10T13:24:46.310Z,18.05
2019-04-10T13:27:14.696Z,17.52
2019-04-10T13:29:42.765Z,17.92
2019-04-10T13:32:11.731Z,18.60
2019-04-10T13:34:39.653Z,18.73
2019-04-10T13:37:08.315Z,18.55
2019-04-10T13:39:35.696Z,19.42
2019-04-10T13:42:04.985Z,18.40
2019-04-10T13:44:32.923Z,17.92
2019-04-10T13:47:01.510Z,18.55
2019-04-10T13:49:28.918Z,19.48
2019-04-10T13:51:57.159Z,20.20
2019-04-10T13:54:26.332Z,19.80
2019-04-10T13:56:53.547Z,18.77
2019-04-10T13:59:22.667Z,17.70
2019-04-10T14:01:50.189Z,18.60
2019-04-10T14:04:18.764Z,18.85
2019-04-10T14:06:49.148Z,19.45
2019-04-10T14:09:28.773Z,18.60
2019-04-10T14:11:43.679Z,20.02
2019-04-10T14:14:11.244Z,20.30
2019-04-10T14:16:39.441Z,20.95
2019-04-10T14:19:07.762Z,20.05
2019-04-10T14:21:35.865Z,19.75
2019-04-10T14:24:05.107Z,18.58
2019-04-10T14:26:43.942Z,19.80
2019-04-10T14:29:05.280Z,18.92
2019-04-10T14:31:32.572Z,18.62
2019-04-10T14:34:01.676Z,17.20
2019-04-10T14:36:29.780Z,16.20
2019-04-10T14:39:08.638Z,17.65
2019-04-10T14:41:26.189Z,18.17
2019-04-10T14:43:53.734Z,17.98
2019-04-10T14:46:21.920Z,16.42
2019-04-10T14:48:50.291Z,17.23
2019-04-10T14:51:18.469Z,16.48
2019-04-10T14:53:46.915Z,15.55
2019-04-10T14:56:15.636Z,14.55
2019-04-10T14:58:43.152Z,15.20
2019-04-10T15:01:11.901Z,15.23
2019-04-10T15:03:40.404Z,15.00
2019-04-10T15:06:09.157Z,14.45
2019-04-10T15:08:36.587Z,14.90
2019-04-10T15:11:04.803Z,13.80
2019-04-10T15:13:33.932Z,15.25
2019-04-10T15:16:01.202Z,14.30
2019-04-10T15:18:29.481Z,15.20
2019-04-10T15:20:58.598Z,13.75
2019-04-10T15:23:26.034Z,13.62
2019-04-10T15:25:55.412Z,14.52
2019-04-10T15:28:23.227Z,14.53
2019-04-10T15:30:50.865Z,14.75
2019-04-10T15:33:18.983Z,15.30
2019-04-10T15:35:47.245Z,13.57
2019-04-10T15:38:15.421Z,14.70
2019-04-10T15:40:44.049Z,14.13
2019-04-10T15:43:12.631Z,13.25
2019-04-10T15:45:40.182Z,14.10
2019-04-10T15:48:08.450Z,13.82
2019-04-10T15:50:36.719Z,15.10
2019-04-10T15:53:05.037Z,14.40
2019-04-10T15:55:33.198Z,13.80
2019-04-10T15:58:03.630Z,14.30
2019-04-10T16:00:29.606Z,15.23
2019-04-10T16:02:57.881Z,13.85
2019-04-10T16:05:26.115Z,15.35
2019-04-10T16:07:55.250Z,15.33
2019-04-10T16:10:26.464Z,16.00
2019-04-10T16:12:55.514Z,15.00
2019-04-10T16:15:22.930Z,14.75
2019-04-10T16:17:52.470Z,15.30
2019-04-10T16:20:19.659Z,15.50
2019-04-10T16:22:51.036Z,15.68
2019-04-10T16:25:19.773Z,16.00
2019-04-10T16:27:48.213Z,16.12
2019-04-10T16:30:17.207Z,15.18
2019-04-10T16:32:44.715Z,16.00
2019-04-10T16:35:13.883Z,15.20
2019-04-10T16:37:41.864Z,14.30
2019-04-10T16:40:10.504Z,15.63
2019-04-10T16:42:37.657Z,15.75
2019-04-10T16:45:05.943Z,15.82
2019-04-10T16:47:34.363Z,16.08
2019-04-10T16:50:03.432Z,16.00
2019-04-10T16:52:31.252Z,15.23
2019-04-10T16:54:59.707Z,15.50
2019-04-10T16:57:26.992Z,15.68
2019-04-10T16:59:56.048Z,15.32
2019-04-10T17:02:24.233Z,15.60
2019-04-10T17:04:52.166Z,15.13
2019-04-10T17:07:21.008Z,15.20
2019-04-10T17:09:49.936Z,14.43
2019-04-10T17:12:16.467Z,14.45
2019-04-10T17:14:45.703Z,15.10
2019-04-10T17:17:12.965Z,14.55
2019-04-10T17:19:49.258Z,14.82
2019-04-10T17:22:09.405Z,13.85
2019-04-10T17:24:37.660Z,13.98
2019-04-10T17:27:06.417Z,13.77
2019-04-10T17:29:34.156Z,13.00
2019-04-10T17:32:02.648Z,13.40
2019-04-10T17:34:30.614Z,13.43
2019-04-10T17:36:59.214Z,13.33
2019-04-10T17:39:27.198Z,13.27
2019-04-10T17:41:55.821Z,12.73
2019-04-10T17:44:23.613Z,13.00
2019-04-10T17:46:51.888Z,13.18
2019-04-10T17:49:20.192Z,13.30
2019-04-10T17:51:48.309Z,13.05
2019-04-10T17:54:17.792Z,12.20
2019-04-10T17:56:44.792Z,12.98
2019-04-10T17:59:14.098Z,12.30
2019-04-10T18:01:41.256Z,12.80
2019-04-10T18:04:09.567Z,12.18
2019-04-10T18:06:37.679Z,12.32
2019-04-10T18:09:05.961Z,12.32
2019-04-10T18:11:34.145Z,12.68
2019-04-10T18:14:02.741Z,12.27
2019-04-10T18:16:30.613Z,12.45
2019-04-10T18:19:00.010Z,12.37
2019-04-10T18:21:27.092Z,13.02
2019-04-10T18:23:55.761Z,13.15
2019-04-10T18:26:23.690Z,13.23
2019-04-10T18:28:52.029Z,13.13
2019-04-10T18:31:23.551Z,13.25
2019-04-10T18:33:48.938Z,13.43
2019-04-10T18:36:17.467Z,13.30
2019-04-10T18:38:45.863Z,13.27
2019-04-10T18:41:13.766Z,13.68
2019-04-10T18:43:41.193Z,13.70
2019-04-10T18:46:13.398Z,13.62
2019-04-10T18:48:38.778Z,13.57
2019-04-10T18:51:07.815Z,13.55
2019-04-10T18:53:35.145Z,13.98
2019-04-10T18:56:03.012Z,13.88
2019-04-10T18:58:31.679Z,13.32
2019-04-10T19:00:59.518Z,13.88
2019-04-10T19:03:29.647Z,13.35
2019-04-10T19:05:58.350Z,14.00
2019-04-10T19:08:26.090Z,13.15
2019-04-10T19:11:09.513Z,13.43
2019-04-10T19:13:22.530Z,13.13
2019-04-10T19:15:50.855Z,12.60
2019-04-10T19:18:19.566Z,13.35
2019-04-10T19:20:47.066Z,13.30
2019-04-10T19:23:15.314Z,12.90
2019-04-10T19:25:43.614Z,13.27
2019-04-10T19:28:12.807Z,12.45
2019-04-10T19:30:40.043Z,12.93
2019-04-10T19:33:08.288Z,12.90
2019-04-10T19:35:37.289Z,12.10
2019-04-10T19:38:05.181Z,12.20
2019-04-10T19:40:33.962Z,11.80
2019-04-10T19:43:01.990Z,12.20
2019-04-10T19:45:29.902Z,12.25
2019-04-10T19:47:58.913Z,10.82
2019-04-10T19:50:25.830Z,11.98
2019-04-10T19:52:55.046Z,11.98
2019-04-10T19:55:22.270Z,11.18
2019-04-10T19:57:50.478Z,10.68
2019-04-10T20:00:19.934Z,11.70
2019-04-10T20:02:46.949Z,11.40
2019-04-10T20:05:15.310Z,11.45
2019-04-10T20:07:43.555Z,11.73
2019-04-10T20:10:12.876Z,11.77
2019-04-10T20:12:40.445Z,11.90
2019-04-10T20:15:08.344Z,11.85
2019-04-10T20:17:36.539Z,11.75
2019-04-10T20:20:04.782Z,11.45
2019-04-10T20:22:32.993Z,11.50
2019-04-10T20:25:02.152Z,12.50
2019-04-10T20:27:29.395Z,13.20
2019-04-10T20:29:58.008Z,12.75
2019-04-10T20:32:26.062Z,13.23
2019-04-10T20:34:54.280Z,13.05
2019-04-10T20:37:22.907Z,13.70
2019-04-10T20:39:51.633Z,13.73
2019-04-10T20:42:18.931Z,13.98
2019-04-10T20:44:47.173Z,13.45
2019-04-10T20:47:15.783Z,13.60
2019-04-10T20:49:44.627Z,13.13
2019-04-10T20:52:13.209Z,12.83
2019-04-10T20:54:39.975Z,13.90
2019-04-10T20:57:08.225Z,14.05
2019-04-10T20:59:37.065Z,13.20
2019-04-10T21:02:06.155Z,14.00
2019-04-10T21:04:33.824Z,13.07
2019-04-10T21:07:02.772Z,12.67
2019-04-10T21:09:29.906Z,13.05
2019-04-10T21:12:05.257Z,13.07
2019-04-10T21:14:26.220Z,13.02
2019-04-10T21:16:54.427Z,13.88
2019-04-10T21:19:22.667Z,14.10
2019-04-10T21:21:51.057Z,13.82
2019-04-10T21:24:19.081Z,13.35
2019-04-10T21:26:48.469Z,14.32
2019-04-10T21:29:16.357Z,14.52
2019-04-10T21:31:48.310Z,14.57
2019-04-10T21:34:15.827Z,13.93
2019-04-10T21:36:44.016Z,13.27
2019-04-10T21:39:12.400Z,13.10
2019-04-10T21:41:41.156Z,12.85
2019-04-10T21:44:09.910Z,13.60
2019-04-10T21:46:36.899Z,13.40
2019-04-10T21:49:05.705Z,13.40
2019-04-10T21:51:33.590Z,12.93
2019-04-10T21:54:02.226Z,13.05
2019-04-10T21:56:30.927Z,12.32
2019-04-10T21:58:59.147Z,12.80
2019-04-10T22:01:26.365Z,12.00
2019-04-10T22:03:54.578Z,12.00
2019-04-10T22:06:26.719Z,12.20
2019-04-10T22:08:58.299Z,11.93
2019-04-10T22:11:26.095Z,11.82
2019-04-10T22:13:54.812Z,12.43
2019-04-10T22:16:22.630Z,11.82
2019-04-10T22:18:51.880Z,11.68
2019-04-10T22:21:19.036Z,11.82
2019-04-10T22:23:47.308Z,12.43
2019-04-10T22:26:15.796Z,11.50
2019-04-10T22:28:43.733Z,11.23
2019-04-10T22:31:11.947Z,10.85
2019-04-10T22:33:40.519Z,10.63
2019-04-10T22:36:08.668Z,10.88
2019-04-10T22:38:37.713Z,11.60
2019-04-10T22:41:17.427Z,10.60
2019-04-10T22:43:33.169Z,10.68
2019-04-10T22:46:02.497Z,10.85
2019-04-10T22:48:30.627Z,11.23
2019-04-10T22:50:57.672Z,10.82
2019-04-10T22:53:25.910Z,10.80
2019-04-10T22:55:54.154Z,10.35
2019-04-10T22:58:22.391Z,10.52
2019-04-10T23:00:50.934Z,10.30
2019-04-10T23:03:18.855Z,9.50
2019-04-10T23:05:47.095Z,10.10
2019-04-10T23:08:15.639Z,9.88
2019-04-10T23:10:43.603Z,9.98
2019-04-10T23:13:12.019Z,10.40
2019-04-10T23:15:40.015Z,10.20
2019-04-10T23:18:08.245Z,9.83
2019-04-10T23:20:36.449Z,9.70
2019-04-10T23:23:04.703Z,9.88
2019-04-10T23:25:32.879Z,10.00
2019-04-10T23:28:01.150Z,9.50
2019-04-10T23:30:29.359Z,9.57
2019-04-10T23:32:57.608Z,9.70
2019-04-10T23:35:25.828Z,9.70
2019-04-10T23:37:55.109Z,10.13
2019-04-10T23:40:23.013Z,9.45
2019-04-10T23:43:02.662Z,9.70
2019-04-10T23:45:19.641Z,9.52
2019-04-10T23:47:48.669Z,9.75
2019-04-10T23:50:16.556Z,9.85
2019-04-10T23:52:44.434Z,9.98
2019-04-10T23:55:13.617Z,9.93
2019-04-10T23:57:41.191Z,10.55
